sensor_id;sensor_type;location;lat;lon;timestamp;P1;durP1;ratioP1;P2;durP2;ratioP2
33862;SDS011;20158;51.436;-2.742;2023-02-08T00:01:23;19.90;;;13.32;;
33862;SDS011;20158;51.436;-2.742;2023-02-08T00:03:50;19.67;;;13.63;;
33862;SDS011;20158;51.436;-2.742;2023-02-08T00:06:16;20.30;;;13.45;;
33862;SDS011;20158;51.436;-2.742;2023-02-08T00:08:45;20.48;;;13.77;;
33862;SDS011;20158;51.436;-2.742;2023-02-08T00:11:12;20.27;;;13.45;;
33862;SDS011;20158;51.436;-2.742;2023-02-08T00:13:39;17.45;;;12.68;;
33862;SDS011;20158;51.436;-2.742;2023-02-08T00:16:06;17.08;;;12.05;;
33862;SDS011;20158;51.436;-2.742;2023-02-08T00:18:32;19.13;;;13.75;;
33862;SDS011;20158;51.436;-2.742;2023-02-08T00:20:58;18.00;;;13.40;;
33862;SDS011;20158;51.436;-2.742;2023-02-08T00:23:24;15.20;;;13.23;;
33862;SDS011;20158;51.436;-2.742;2023-02-08T00:25:52;20.60;;;12.02;;
33862;SDS011;20158;51.436;-2.742;2023-02-08T00:28:18;17.75;;;12.57;;
33862;SDS011;20158;51.436;-2.742;2023-02-08T00:30:44;19.25;;;14.18;;
33862;SDS011;20158;51.436;-2.742;2023-02-08T00:33:10;20.58;;;13.25;;
33862;SDS011;20158;51.436;-2.742;2023-02-08T00:35:37;16.98;;;12.90;;
33862;SDS011;20158;51.436;-2.742;2023-02-08T00:38:05;16.05;;;13.15;;
33862;SDS011;20158;51.436;-2.742;2023-02-08T00:40:31;20.30;;;12.38;;
33862;SDS011;20158;51.436;-2.742;2023-02-08T00:42:57;19.83;;;13.77;;
33862;SDS011;20158;51.436;-2.742;2023-02-08T00:45:23;15.07;;;12.55;;
33862;SDS011;20158;51.436;-2.742;2023-02-08T00:47:49;19.20;;;12.55;;
33862;SDS011;20158;51.436;-2.742;2023-02-08T00:50:15;19.15;;;13.52;;
33862;SDS011;20158;51.436;-2.742;2023-02-08T00:52:41;18.52;;;12.68;;
33862;SDS011;20158;51.436;-2.742;2023-02-08T00:55:09;19.83;;;13.73;;
33862;SDS011;20158;51.436;-2.742;2023-02-08T00:57:35;19.98;;;13.07;;
33862;SDS011;20158;51.436;-2.742;2023-02-08T01:00:01;18.25;;;13.30;;
33862;SDS011;20158;51.436;-2.742;2023-02-08T01:02:28;17.77;;;12.43;;
33862;SDS011;20158;51.436;-2.742;2023-02-08T01:04:54;18.42;;;13.75;;
33862;SDS011;20158;51.436;-2.742;2023-02-08T01:07:20;18.08;;;13.02;;
33862;SDS011;20158;51.436;-2.742;2023-02-08T01:09:46;19.33;;;13.38;;
33862;SDS011;20158;51.436;-2.742;2023-02-08T01:12:12;20.13;;;12.55;;
33862;SDS011;20158;51.436;-2.742;2023-02-08T01:14:39;17.73;;;12.15;;
33862;SDS011;20158;51.436;-2.742;2023-02-08T01:17:05;20.23;;;12.88;;
33862;SDS011;20158;51.436;-2.742;2023-02-08T01:19:31;20.70;;;12.15;;
33862;SDS011;20158;51.436;-2.742;2023-02-08T01:21:58;24.75;;;14.00;;
33862;SDS011;20158;51.436;-2.742;2023-02-08T01:24:24;20.05;;;13.30;;
33862;SDS011;20158;51.436;-2.742;2023-02-08T01:26:50;18.17;;;13.95;;
33862;SDS011;20158;51.436;-2.742;2023-02-08T01:29:16;18.70;;;12.40;;
33862;SDS011;20158;51.436;-2.742;2023-02-08T01:31:43;15.75;;;12.60;;
33862;SDS011;20158;51.436;-2.742;2023-02-08T01:34:09;19.95;;;12.30;;
33862;SDS011;20158;51.436;-2.742;2023-02-08T01:36:37;16.77;;;12.68;;
33862;SDS011;20158;51.436;-2.742;2023-02-08T01:39:04;18.42;;;12.98;;
33862;SDS011;20158;51.436;-2.742;2023-02-08T01:41:32;17.67;;;12.75;;
33862;SDS011;20158;51.436;-2.742;2023-02-08T01:46:33;20.88;;;13.48;;
33862;SDS011;20158;51.436;-2.742;2023-02-08T01:49:05;16.90;;;12.48;;
33862;SDS011;20158;51.436;-2.742;2023-02-08T01:51:38;21.33;;;12.90;;
33862;SDS011;20158;51.436;-2.742;2023-02-08T01:54:09;21.00;;;13.77;;
33862;SDS011;20158;51.436;-2.742;2023-02-08T01:56:39;17.33;;;12.43;;
33862;SDS011;20158;51.436;-2.742;2023-02-08T01:59:17;18.52;;;12.48;;
33862;SDS011;20158;51.436;-2.742;2023-02-08T02:01:47;17.88;;;13.77;;
33862;SDS011;20158;51.436;-2.742;2023-02-08T02:04:16;20.65;;;13.07;;
33862;SDS011;20158;51.436;-2.742;2023-02-08T02:06:44;20.98;;;12.85;;
33862;SDS011;20158;51.436;-2.742;2023-02-08T02:11:50;21.25;;;13.63;;
33862;SDS011;20158;51.436;-2.742;2023-02-08T02:14:18;17.50;;;12.95;;
33862;SDS011;20158;51.436;-2.742;2023-02-08T02:16:45;21.05;;;13.73;;
33862;SDS011;20158;51.436;-2.742;2023-02-08T02:19:14;20.10;;;14.05;;
33862;SDS011;20158;51.436;-2.742;2023-02-08T02:44:24;23.20;;;14.98;;
33862;SDS011;20158;51.436;-2.742;2023-02-08T02:47:11;24.05;;;15.38;;
33862;SDS011;20158;51.436;-2.742;2023-02-08T02:49:43;25.02;;;14.98;;
33862;SDS011;20158;51.436;-2.742;2023-02-08T02:52:41;20.90;;;14.45;;
33862;SDS011;20158;51.436;-2.742;2023-02-08T02:55:17;19.35;;;14.15;;
33862;SDS011;20158;51.436;-2.742;2023-02-08T02:57:47;25.85;;;15.77;;
33862;SDS011;20158;51.436;-2.742;2023-02-08T03:00:23;21.63;;;14.85;;
33862;SDS011;20158;51.436;-2.742;2023-02-08T03:02:51;27.02;;;15.10;;
33862;SDS011;20158;51.436;-2.742;2023-02-08T03:05:17;25.55;;;17.02;;
33862;SDS011;20158;51.436;-2.742;2023-02-08T03:13:24;23.52;;;14.55;;
33862;SDS011;20158;51.436;-2.742;2023-02-08T03:22:14;20.63;;;14.25;;
33862;SDS011;20158;51.436;-2.742;2023-02-08T03:32:45;18.98;;;13.32;;
33862;SDS011;20158;51.436;-2.742;2023-02-08T03:35:20;17.95;;;12.68;;
33862;SDS011;20158;51.436;-2.742;2023-02-08T03:37:59;19.17;;;13.05;;
33862;SDS011;20158;51.436;-2.742;2023-02-08T03:40:39;22.52;;;12.98;;
33862;SDS011;20158;51.436;-2.742;2023-02-08T03:43:12;21.50;;;13.60;;
33862;SDS011;20158;51.436;-2.742;2023-02-08T03:45:47;18.55;;;13.40;;
33862;SDS011;20158;51.436;-2.742;2023-02-08T03:48:17;24.63;;;15.40;;
33862;SDS011;20158;51.436;-2.742;2023-02-08T03:50:47;19.50;;;13.70;;
33862;SDS011;20158;51.436;-2.742;2023-02-08T03:53:16;23.80;;;14.70;;
33862;SDS011;20158;51.436;-2.742;2023-02-08T03:55:46;21.88;;;14.05;;
33862;SDS011;20158;51.436;-2.742;2023-02-08T03:58:17;22.98;;;15.25;;
33862;SDS011;20158;51.436;-2.742;2023-02-08T04:03:46;22.15;;;16.27;;
33862;SDS011;20158;51.436;-2.742;2023-02-08T04:06:18;26.25;;;15.32;;
33862;SDS011;20158;51.436;-2.742;2023-02-08T04:08:45;26.10;;;17.13;;
33862;SDS011;20158;51.436;-2.742;2023-02-08T04:11:11;23.27;;;16.50;;
33862;SDS011;20158;51.436;-2.742;2023-02-08T04:13:37;24.25;;;16.98;;
33862;SDS011;20158;51.436;-2.742;2023-02-08T04:16:03;26.77;;;17.10;;
33862;SDS011;20158;51.436;-2.742;2023-02-08T04:18:29;25.75;;;18.13;;
33862;SDS011;20158;51.436;-2.742;2023-02-08T04:20:55;23.65;;;16.98;;
33862;SDS011;20158;51.436;-2.742;2023-02-08T04:23:21;21.92;;;18.13;;
33862;SDS011;20158;51.436;-2.742;2023-02-08T04:25:47;25.23;;;18.83;;
33862;SDS011;20158;51.436;-2.742;2023-02-08T04:28:13;25.67;;;18.67;;
33862;SDS011;20158;51.436;-2.742;2023-02-08T04:30:39;26.77;;;19.50;;
33862;SDS011;20158;51.436;-2.742;2023-02-08T04:33:06;26.92;;;20.65;;
33862;SDS011;20158;51.436;-2.742;2023-02-08T04:35:31;29.58;;;20.50;;
33862;SDS011;20158;51.436;-2.742;2023-02-08T04:37:57;30.05;;;21.90;;
33862;SDS011;20158;51.436;-2.742;2023-02-08T04:40:23;29.13;;;21.48;;
33862;SDS011;20158;51.436;-2.742;2023-02-08T04:42:49;33.47;;;22.95;;
33862;SDS011;20158;51.436;-2.742;2023-02-08T04:45:15;31.55;;;22.38;;
33862;SDS011;20158;51.436;-2.742;2023-02-08T04:47:41;30.40;;;23.23;;
33862;SDS011;20158;51.436;-2.742;2023-02-08T04:50:07;32.05;;;23.77;;
33862;SDS011;20158;51.436;-2.742;2023-02-08T04:52:33;32.50;;;24.23;;
33862;SDS011;20158;51.436;-2.742;2023-02-08T04:54:59;31.92;;;24.58;;
33862;SDS011;20158;51.436;-2.742;2023-02-08T04:57:25;30.10;;;23.30;;
33862;SDS011;20158;51.436;-2.742;2023-02-08T04:59:51;34.85;;;24.52;;
33862;SDS011;20158;51.436;-2.742;2023-02-08T05:02:16;34.30;;;24.17;;
33862;SDS011;20158;51.436;-2.742;2023-02-08T05:04:42;30.73;;;23.65;;
33862;SDS011;20158;51.436;-2.742;2023-02-08T05:07:08;31.45;;;23.83;;
33862;SDS011;20158;51.436;-2.742;2023-02-08T05:09:34;29.17;;;22.40;;
33862;SDS011;20158;51.436;-2.742;2023-02-08T05:12:00;31.33;;;22.63;;
33862;SDS011;20158;51.436;-2.742;2023-02-08T05:14:26;27.55;;;21.63;;
33862;SDS011;20158;51.436;-2.742;2023-02-08T05:16:52;30.10;;;22.42;;
33862;SDS011;20158;51.436;-2.742;2023-02-08T05:19:18;30.77;;;22.52;;
33862;SDS011;20158;51.436;-2.742;2023-02-08T05:21:44;34.05;;;22.45;;
33862;SDS011;20158;51.436;-2.742;2023-02-08T05:24:09;29.02;;;22.35;;
33862;SDS011;20158;51.436;-2.742;2023-02-08T05:26:37;33.40;;;21.83;;
33862;SDS011;20158;51.436;-2.742;2023-02-08T05:29:03;29.65;;;22.83;;
33862;SDS011;20158;51.436;-2.742;2023-02-08T05:31:29;29.38;;;21.38;;
33862;SDS011;20158;51.436;-2.742;2023-02-08T05:33:55;27.80;;;21.45;;
33862;SDS011;20158;51.436;-2.742;2023-02-08T05:36:21;30.63;;;21.65;;
33862;SDS011;20158;51.436;-2.742;2023-02-08T05:38:48;34.50;;;22.63;;
33862;SDS011;20158;51.436;-2.742;2023-02-08T05:41:15;27.80;;;22.45;;
33862;SDS011;20158;51.436;-2.742;2023-02-08T05:43:41;30.02;;;22.90;;
33862;SDS011;20158;51.436;-2.742;2023-02-08T05:46:07;27.13;;;20.83;;
33862;SDS011;20158;51.436;-2.742;2023-02-08T05:48:33;28.40;;;21.38;;
33862;SDS011;20158;51.436;-2.742;2023-02-08T05:50:59;30.88;;;22.10;;
33862;SDS011;20158;51.436;-2.742;2023-02-08T05:53:25;28.05;;;21.20;;
33862;SDS011;20158;51.436;-2.742;2023-02-08T05:55:51;28.95;;;20.95;;
33862;SDS011;20158;51.436;-2.742;2023-02-08T05:58:17;29.63;;;22.23;;
33862;SDS011;20158;51.436;-2.742;2023-02-08T06:00:43;33.72;;;22.05;;
33862;SDS011;20158;51.436;-2.742;2023-02-08T06:03:10;29.70;;;21.23;;
33862;SDS011;20158;51.436;-2.742;2023-02-08T06:05:36;31.00;;;22.02;;
33862;SDS011;20158;51.436;-2.742;2023-02-08T06:08:03;26.50;;;21.20;;
33862;SDS011;20158;51.436;-2.742;2023-02-08T06:10:30;32.53;;;22.08;;
33862;SDS011;20158;51.436;-2.742;2023-02-08T06:12:56;30.25;;;22.05;;
33862;SDS011;20158;51.436;-2.742;2023-02-08T06:15:23;30.25;;;21.90;;
33862;SDS011;20158;51.436;-2.742;2023-02-08T06:17:49;31.48;;;21.90;;
33862;SDS011;20158;51.436;-2.742;2023-02-08T06:20:15;30.33;;;21.88;;
33862;SDS011;20158;51.436;-2.742;2023-02-08T06:22:41;25.77;;;21.77;;
33862;SDS011;20158;51.436;-2.742;2023-02-08T06:25:07;34.45;;;21.67;;
33862;SDS011;20158;51.436;-2.742;2023-02-08T06:27:33;26.33;;;21.83;;
33862;SDS011;20158;51.436;-2.742;2023-02-08T06:30:00;30.00;;;21.67;;
33862;SDS011;20158;51.436;-2.742;2023-02-08T06:32:26;30.55;;;20.23;;
33862;SDS011;20158;51.436;-2.742;2023-02-08T06:34:52;29.20;;;20.98;;
33862;SDS011;20158;51.436;-2.742;2023-02-08T06:37:18;25.92;;;20.98;;
33862;SDS011;20158;51.436;-2.742;2023-02-08T06:39:44;38.38;;;22.77;;
33862;SDS011;20158;51.436;-2.742;2023-02-08T06:42:10;27.60;;;21.40;;
33862;SDS011;20158;51.436;-2.742;2023-02-08T06:44:36;29.50;;;21.63;;
33862;SDS011;20158;51.436;-2.742;2023-02-08T06:47:02;33.47;;;24.05;;
33862;SDS011;20158;51.436;-2.742;2023-02-08T06:49:29;28.48;;;21.55;;
33862;SDS011;20158;51.436;-2.742;2023-02-08T06:51:55;27.65;;;20.17;;
33862;SDS011;20158;51.436;-2.742;2023-02-08T06:54:20;29.92;;;20.75;;
33862;SDS011;20158;51.436;-2.742;2023-02-08T06:56:46;31.08;;;20.02;;
33862;SDS011;20158;51.436;-2.742;2023-02-08T06:59:12;34.10;;;25.02;;
33862;SDS011;20158;51.436;-2.742;2023-02-08T07:01:38;31.08;;;23.65;;
33862;SDS011;20158;51.436;-2.742;2023-02-08T07:04:04;38.53;;;25.30;;
33862;SDS011;20158;51.436;-2.742;2023-02-08T07:06:30;37.58;;;23.08;;
33862;SDS011;20158;51.436;-2.742;2023-02-08T07:08:56;31.75;;;22.33;;
33862;SDS011;20158;51.436;-2.742;2023-02-08T07:11:22;33.75;;;24.52;;
33862;SDS011;20158;51.436;-2.742;2023-02-08T07:13:49;31.92;;;23.55;;
33862;SDS011;20158;51.436;-2.742;2023-02-08T07:16:15;35.28;;;24.10;;
33862;SDS011;20158;51.436;-2.742;2023-02-08T07:18:42;32.45;;;23.73;;
33862;SDS011;20158;51.436;-2.742;2023-02-08T07:21:08;34.83;;;25.90;;
33862;SDS011;20158;51.436;-2.742;2023-02-08T07:23:39;36.20;;;24.38;;
33862;SDS011;20158;51.436;-2.742;2023-02-08T07:26:07;32.20;;;24.58;;
33862;SDS011;20158;51.436;-2.742;2023-02-08T07:28:36;32.67;;;24.50;;
33862;SDS011;20158;51.436;-2.742;2023-02-08T07:31:06;29.95;;;22.25;;
33862;SDS011;20158;51.436;-2.742;2023-02-08T07:33:33;34.67;;;23.98;;
33862;SDS011;20158;51.436;-2.742;2023-02-08T07:35:59;32.00;;;23.13;;
33862;SDS011;20158;51.436;-2.742;2023-02-08T07:38:25;32.20;;;23.95;;
33862;SDS011;20158;51.436;-2.742;2023-02-08T07:40:51;33.25;;;22.60;;
33862;SDS011;20158;51.436;-2.742;2023-02-08T07:43:25;28.15;;;21.45;;
33862;SDS011;20158;51.436;-2.742;2023-02-08T07:45:56;27.30;;;21.40;;
33862;SDS011;20158;51.436;-2.742;2023-02-08T07:48:22;28.55;;;19.92;;
33862;SDS011;20158;51.436;-2.742;2023-02-08T07:50:48;29.52;;;19.80;;
33862;SDS011;20158;51.436;-2.742;2023-02-08T07:53:14;31.92;;;19.90;;
33862;SDS011;20158;51.436;-2.742;2023-02-08T07:55:40;26.45;;;20.15;;
33862;SDS011;20158;51.436;-2.742;2023-02-08T07:58:10;28.15;;;18.50;;
33862;SDS011;20158;51.436;-2.742;2023-02-08T08:00:36;25.88;;;18.20;;
33862;SDS011;20158;51.436;-2.742;2023-02-08T08:03:02;23.75;;;18.20;;
33862;SDS011;20158;51.436;-2.742;2023-02-08T08:05:28;27.27;;;17.92;;
33862;SDS011;20158;51.436;-2.742;2023-02-08T08:07:54;25.73;;;17.73;;
33862;SDS011;20158;51.436;-2.742;2023-02-08T08:10:19;25.65;;;17.08;;
33862;SDS011;20158;51.436;-2.742;2023-02-08T08:12:45;21.35;;;16.48;;
33862;SDS011;20158;51.436;-2.742;2023-02-08T08:15:11;26.58;;;17.27;;
33862;SDS011;20158;51.436;-2.742;2023-02-08T08:17:37;27.30;;;16.50;;
33862;SDS011;20158;51.436;-2.742;2023-02-08T08:20:09;22.77;;;16.50;;
33862;SDS011;20158;51.436;-2.742;2023-02-08T08:22:36;25.95;;;16.00;;
33862;SDS011;20158;51.436;-2.742;2023-02-08T08:25:02;24.75;;;15.25;;
33862;SDS011;20158;51.436;-2.742;2023-02-08T08:27:28;22.45;;;16.02;;
33862;SDS011;20158;51.436;-2.742;2023-02-08T08:29:54;21.75;;;16.50;;
33862;SDS011;20158;51.436;-2.742;2023-02-08T08:32:20;22.15;;;15.35;;
33862;SDS011;20158;51.436;-2.742;2023-02-08T08:34:46;21.73;;;14.65;;
33862;SDS011;20158;51.436;-2.742;2023-02-08T08:37:12;18.23;;;14.52;;
33862;SDS011;20158;51.436;-2.742;2023-02-08T08:39:38;26.13;;;15.98;;
33862;SDS011;20158;51.436;-2.742;2023-02-08T08:42:04;24.90;;;16.35;;
33862;SDS011;20158;51.436;-2.742;2023-02-08T08:44:30;20.90;;;15.25;;
33862;SDS011;20158;51.436;-2.742;2023-02-08T08:46:58;22.15;;;15.65;;
33862;SDS011;20158;51.436;-2.742;2023-02-08T08:49:25;23.02;;;16.67;;
33862;SDS011;20158;51.436;-2.742;2023-02-08T08:51:52;24.92;;;16.83;;
33862;SDS011;20158;51.436;-2.742;2023-02-08T08:54:19;23.13;;;16.38;;
33862;SDS011;20158;51.436;-2.742;2023-02-08T08:56:46;23.10;;;16.08;;
33862;SDS011;20158;51.436;-2.742;2023-02-08T08:59:12;23.95;;;17.20;;
33862;SDS011;20158;51.436;-2.742;2023-02-08T09:01:38;29.55;;;18.10;;
33862;SDS011;20158;51.436;-2.742;2023-02-08T09:04:06;25.63;;;16.92;;
33862;SDS011;20158;51.436;-2.742;2023-02-08T09:06:33;28.30;;;17.65;;
33862;SDS011;20158;51.436;-2.742;2023-02-08T09:08:59;23.35;;;16.60;;
33862;SDS011;20158;51.436;-2.742;2023-02-08T09:11:26;24.13;;;17.77;;
33862;SDS011;20158;51.436;-2.742;2023-02-08T09:13:52;25.25;;;17.65;;
33862;SDS011;20158;51.436;-2.742;2023-02-08T09:16:20;25.42;;;16.17;;
33862;SDS011;20158;51.436;-2.742;2023-02-08T09:18:47;22.38;;;16.88;;
33862;SDS011;20158;51.436;-2.742;2023-02-08T09:21:14;27.75;;;18.45;;
33862;SDS011;20158;51.436;-2.742;2023-02-08T09:23:45;27.15;;;16.90;;
33862;SDS011;20158;51.436;-2.742;2023-02-08T09:26:14;25.08;;;17.08;;
33862;SDS011;20158;51.436;-2.742;2023-02-08T09:28:41;27.23;;;18.13;;
33862;SDS011;20158;51.436;-2.742;2023-02-08T09:33:45;23.38;;;17.20;;
33862;SDS011;20158;51.436;-2.742;2023-02-08T09:36:12;24.40;;;18.10;;
33862;SDS011;20158;51.436;-2.742;2023-02-08T09:38:40;27.25;;;18.45;;
33862;SDS011;20158;51.436;-2.742;2023-02-08T09:49:39;23.95;;;17.70;;
33862;SDS011;20158;51.436;-2.742;2023-02-08T09:52:23;27.75;;;17.30;;
33862;SDS011;20158;51.436;-2.742;2023-02-08T09:54:57;18.52;;;13.65;;
33862;SDS011;20158;51.436;-2.742;2023-02-08T09:57:27;27.40;;;17.63;;
33862;SDS011;20158;51.436;-2.742;2023-02-08T09:59:57;28.42;;;19.25;;
33862;SDS011;20158;51.436;-2.742;2023-02-08T10:02:30;25.00;;;17.42;;
33862;SDS011;20158;51.436;-2.742;2023-02-08T10:05:05;24.23;;;17.67;;
33862;SDS011;20158;51.436;-2.742;2023-02-08T10:07:34;23.23;;;17.35;;
33862;SDS011;20158;51.436;-2.742;2023-02-08T10:10:03;23.55;;;17.40;;
33862;SDS011;20158;51.436;-2.742;2023-02-08T10:12:40;23.88;;;17.67;;
33862;SDS011;20158;51.436;-2.742;2023-02-08T10:21:18;23.30;;;16.23;;
33862;SDS011;20158;51.436;-2.742;2023-02-08T10:23:58;22.77;;;16.98;;
33862;SDS011;20158;51.436;-2.742;2023-02-08T10:26:43;26.05;;;18.27;;
33862;SDS011;20158;51.436;-2.742;2023-02-08T10:33:20;24.98;;;16.20;;
33862;SDS011;20158;51.436;-2.742;2023-02-08T10:35:21;25.88;;;18.00;;
33862;SDS011;20158;51.436;-2.742;2023-02-08T10:38:44;26.75;;;18.15;;
33862;SDS011;20158;51.436;-2.742;2023-02-08T10:40:58;30.33;;;16.83;;
33862;SDS011;20158;51.436;-2.742;2023-02-08T10:46:11;21.67;;;14.25;;
33862;SDS011;20158;51.436;-2.742;2023-02-08T10:51:54;21.98;;;15.32;;
33862;SDS011;20158;51.436;-2.742;2023-02-08T10:54:20;22.70;;;15.70;;
33862;SDS011;20158;51.436;-2.742;2023-02-08T10:56:46;20.63;;;14.15;;
33862;SDS011;20158;51.436;-2.742;2023-02-08T10:59:32;19.05;;;13.95;;
33862;SDS011;20158;51.436;-2.742;2023-02-08T11:02:23;22.33;;;15.23;;
33862;SDS011;20158;51.436;-2.742;2023-02-08T11:07:26;19.42;;;13.38;;
33862;SDS011;20158;51.436;-2.742;2023-02-08T11:09:52;18.55;;;13.55;;
33862;SDS011;20158;51.436;-2.742;2023-02-08T11:12:19;20.65;;;15.02;;
33862;SDS011;20158;51.436;-2.742;2023-02-08T11:14:47;18.83;;;14.50;;
33862;SDS011;20158;51.436;-2.742;2023-02-08T11:17:34;17.25;;;12.73;;
33862;SDS011;20158;51.436;-2.742;2023-02-08T11:20:00;17.77;;;14.40;;
33862;SDS011;20158;51.436;-2.742;2023-02-08T11:22:26;19.40;;;13.90;;
33862;SDS011;20158;51.436;-2.742;2023-02-08T11:24:59;21.02;;;14.35;;
33862;SDS011;20158;51.436;-2.742;2023-02-08T11:32:40;20.65;;;14.23;;
33862;SDS011;20158;51.436;-2.742;2023-02-08T11:37:56;18.25;;;12.85;;
33862;SDS011;20158;51.436;-2.742;2023-02-08T11:42:58;18.95;;;13.27;;
33862;SDS011;20158;51.436;-2.742;2023-02-08T11:47:54;18.23;;;13.23;;
33862;SDS011;20158;51.436;-2.742;2023-02-08T11:50:22;19.83;;;12.52;;
33862;SDS011;20158;51.436;-2.742;2023-02-08T11:53:00;24.40;;;14.88;;
33862;SDS011;20158;51.436;-2.742;2023-02-08T11:55:45;21.40;;;13.27;;
33862;SDS011;20158;51.436;-2.742;2023-02-08T12:01:24;22.58;;;13.45;;
33862;SDS011;20158;51.436;-2.742;2023-02-08T12:04:02;16.95;;;12.02;;
33862;SDS011;20158;51.436;-2.742;2023-02-08T12:20:25;20.85;;;13.60;;
33862;SDS011;20158;51.436;-2.742;2023-02-08T12:26:06;13.57;;;11.25;;
33862;SDS011;20158;51.436;-2.742;2023-02-08T12:28:47;17.50;;;11.93;;
33862;SDS011;20158;51.436;-2.742;2023-02-08T12:34:16;17.83;;;12.07;;
33862;SDS011;20158;51.436;-2.742;2023-02-08T12:40:02;20.10;;;13.45;;
33862;SDS011;20158;51.436;-2.742;2023-02-08T12:51:52;17.77;;;12.75;;
33862;SDS011;20158;51.436;-2.742;2023-02-08T12:57:24;15.13;;;10.73;;
33862;SDS011;20158;51.436;-2.742;2023-02-08T12:59:55;13.40;;;10.27;;
33862;SDS011;20158;51.436;-2.742;2023-02-08T13:02:39;12.38;;;9.10;;
33862;SDS011;20158;51.436;-2.742;2023-02-08T13:05:19;14.75;;;9.70;;
33862;SDS011;20158;51.436;-2.742;2023-02-08T13:07:48;16.48;;;9.45;;
33862;SDS011;20158;51.436;-2.742;2023-02-08T13:10:25;13.77;;;9.80;;
33862;SDS011;20158;51.436;-2.742;2023-02-08T13:15:47;13.93;;;9.20;;
33862;SDS011;20158;51.436;-2.742;2023-02-08T13:18:24;16.83;;;10.60;;
33862;SDS011;20158;51.436;-2.742;2023-02-08T13:20:59;23.83;;;11.50;;
33862;SDS011;20158;51.436;-2.742;2023-02-08T13:23:33;15.48;;;10.55;;
33862;SDS011;20158;51.436;-2.742;2023-02-08T13:26:02;21.80;;;12.85;;
33862;SDS011;20158;51.436;-2.742;2023-02-08T13:28:32;17.27;;;10.82;;
33862;SDS011;20158;51.436;-2.742;2023-02-08T13:31:12;12.93;;;9.77;;
33862;SDS011;20158;51.436;-2.742;2023-02-08T13:34:26;15.18;;;11.30;;
33862;SDS011;20158;51.436;-2.742;2023-02-08T13:36:49;12.75;;;10.10;;
33862;SDS011;20158;51.436;-2.742;2023-02-08T13:39:31;15.98;;;10.15;;
33862;SDS011;20158;51.436;-2.742;2023-02-08T13:42:00;15.15;;;10.18;;
33862;SDS011;20158;51.436;-2.742;2023-02-08T13:44:36;16.85;;;10.98;;
33862;SDS011;20158;51.436;-2.742;2023-02-08T13:47:03;16.25;;;11.15;;
33862;SDS011;20158;51.436;-2.742;2023-02-08T13:57:56;16.27;;;10.85;;
33862;SDS011;20158;51.436;-2.742;2023-02-08T14:02:59;18.00;;;9.88;;
33862;SDS011;20158;51.436;-2.742;2023-02-08T14:08:18;14.98;;;9.82;;
33862;SDS011;20158;51.436;-2.742;2023-02-08T14:14:39;16.02;;;9.98;;
33862;SDS011;20158;51.436;-2.742;2023-02-08T14:16:42;15.55;;;10.10;;
33862;SDS011;20158;51.436;-2.742;2023-02-08T14:21:45;13.52;;;9.48;;
33862;SDS011;20158;51.436;-2.742;2023-02-08T14:30:30;14.38;;;9.15;;
33862;SDS011;20158;51.436;-2.742;2023-02-08T14:32:34;15.60;;;9.80;;
33862;SDS011;20158;51.436;-2.742;2023-02-08T14:35:07;17.73;;;10.52;;
33862;SDS011;20158;51.436;-2.742;2023-02-08T14:37:34;15.07;;;9.98;;
33862;SDS011;20158;51.436;-2.742;2023-02-08T14:40:30;15.43;;;10.73;;
33862;SDS011;20158;51.436;-2.742;2023-02-08T14:45:46;16.92;;;10.55;;
33862;SDS011;20158;51.436;-2.742;2023-02-08T14:56:30;12.75;;;10.95;;
33862;SDS011;20158;51.436;-2.742;2023-02-08T14:59:04;16.48;;;11.13;;
33862;SDS011;20158;51.436;-2.742;2023-02-08T15:01:43;17.60;;;12.93;;
33862;SDS011;20158;51.436;-2.742;2023-02-08T15:04:24;17.10;;;11.45;;
33862;SDS011;20158;51.436;-2.742;2023-02-08T15:09:55;19.33;;;11.95;;
33862;SDS011;20158;51.436;-2.742;2023-02-08T15:14:57;16.90;;;12.18;;
33862;SDS011;20158;51.436;-2.742;2023-02-08T15:17:32;17.27;;;11.57;;
33862;SDS011;20158;51.436;-2.742;2023-02-08T15:20:14;15.00;;;11.68;;
33862;SDS011;20158;51.436;-2.742;2023-02-08T15:22:44;19.38;;;12.05;;
33862;SDS011;20158;51.436;-2.742;2023-02-08T15:25:15;15.32;;;11.77;;
33862;SDS011;20158;51.436;-2.742;2023-02-08T15:27:46;18.50;;;12.60;;
33862;SDS011;20158;51.436;-2.742;2023-02-08T15:30:23;18.92;;;13.20;;
33862;SDS011;20158;51.436;-2.742;2023-02-08T15:32:58;21.25;;;13.00;;
33862;SDS011;20158;51.436;-2.742;2023-02-08T15:35:25;19.13;;;13.73;;
33862;SDS011;20158;51.436;-2.742;2023-02-08T15:37:53;17.13;;;14.27;;
33862;SDS011;20158;51.436;-2.742;2023-02-08T15:40:27;22.13;;;14.27;;
33862;SDS011;20158;51.436;-2.742;2023-02-08T15:43:01;22.02;;;13.75;;
33862;SDS011;20158;51.436;-2.742;2023-02-08T15:45:33;19.42;;;15.05;;
33862;SDS011;20158;51.436;-2.742;2023-02-08T15:47:59;21.52;;;15.27;;
33862;SDS011;20158;51.436;-2.742;2023-02-08T15:50:26;18.08;;;14.63;;
33862;SDS011;20158;51.436;-2.742;2023-02-08T15:52:56;25.98;;;17.10;;
33862;SDS011;20158;51.436;-2.742;2023-02-08T15:55:24;19.25;;;14.25;;
33862;SDS011;20158;51.436;-2.742;2023-02-08T15:57:53;22.67;;;15.07;;
33862;SDS011;20158;51.436;-2.742;2023-02-08T16:00:24;18.40;;;14.90;;
33862;SDS011;20158;51.436;-2.742;2023-02-08T16:02:55;24.13;;;15.43;;
33862;SDS011;20158;51.436;-2.742;2023-02-08T16:05:26;22.88;;;16.75;;
33862;SDS011;20158;51.436;-2.742;2023-02-08T16:07:53;19.27;;;14.55;;
33862;SDS011;20158;51.436;-2.742;2023-02-08T16:10:21;18.33;;;14.35;;
33862;SDS011;20158;51.436;-2.742;2023-02-08T16:13:02;24.88;;;16.20;;
33862;SDS011;20158;51.436;-2.742;2023-02-08T16:18:00;22.98;;;15.38;;
33862;SDS011;20158;51.436;-2.742;2023-02-08T16:20:27;20.60;;;15.05;;
33862;SDS011;20158;51.436;-2.742;2023-02-08T16:22:57;21.73;;;14.07;;
33862;SDS011;20158;51.436;-2.742;2023-02-08T16:25:43;24.63;;;14.93;;
33862;SDS011;20158;51.436;-2.742;2023-02-08T16:28:21;19.73;;;14.25;;
33862;SDS011;20158;51.436;-2.742;2023-02-08T16:30:54;22.65;;;14.63;;
33862;SDS011;20158;51.436;-2.742;2023-02-08T16:33:22;20.30;;;14.48;;
33862;SDS011;20158;51.436;-2.742;2023-02-08T16:35:48;23.48;;;15.27;;
33862;SDS011;20158;51.436;-2.742;2023-02-08T16:38:19;23.50;;;15.25;;
33862;SDS011;20158;51.436;-2.742;2023-02-08T16:40:51;21.60;;;15.48;;
33862;SDS011;20158;51.436;-2.742;2023-02-08T16:43:31;19.85;;;15.23;;
33862;SDS011;20158;51.436;-2.742;2023-02-08T16:48:36;22.95;;;15.70;;
33862;SDS011;20158;51.436;-2.742;2023-02-08T16:51:04;22.35;;;15.85;;
33862;SDS011;20158;51.436;-2.742;2023-02-08T16:53:34;21.88;;;16.92;;
33862;SDS011;20158;51.436;-2.742;2023-02-08T16:56:01;23.95;;;15.80;;
33862;SDS011;20158;51.436;-2.742;2023-02-08T16:58:26;22.00;;;16.52;;
33862;SDS011;20158;51.436;-2.742;2023-02-08T17:00:52;19.67;;;15.60;;
33862;SDS011;20158;51.436;-2.742;2023-02-08T17:03:18;21.27;;;14.98;;
33862;SDS011;20158;51.436;-2.742;2023-02-08T17:05:44;25.52;;;15.50;;
33862;SDS011;20158;51.436;-2.742;2023-02-08T17:08:13;22.25;;;16.05;;
33862;SDS011;20158;51.436;-2.742;2023-02-08T17:10:41;24.50;;;16.20;;
33862;SDS011;20158;51.436;-2.742;2023-02-08T17:13:08;23.55;;;17.05;;
33862;SDS011;20158;51.436;-2.742;2023-02-08T17:15:35;20.88;;;15.10;;
33862;SDS011;20158;51.436;-2.742;2023-02-08T17:18:01;23.98;;;16.85;;
33862;SDS011;20158;51.436;-2.742;2023-02-08T17:20:29;27.63;;;17.10;;
33862;SDS011;20158;51.436;-2.742;2023-02-08T17:22:56;24.90;;;16.05;;